Climatologie pour Saint-Brevin les Pins
Jour • Résumé pour novembre 11, 2017 Système :  Mixte    Anglais   Métrique
« - 1 jour
+ 1 jour »
Jour Semaine Mois Année Personnalisé
  Maximum : Minimum : Moyenne :
Température sous abri : TemperatureC °F /  -17.8 °C 10.8 °F /  -11.8 °C 13.3 °F /  -10.4 °C
Point de rosée : DewpointC °F /  -17.8 °C 9.6 °F /  -12.4 °C 11.9 °F /  -11.2 °C
Humidité : Humidity % 88 % 91 %
Vitesse du vent : WindSpeedKMH mph /  0 km/h - 12.4 mph /  20 km/h
Rafale : WindSpeedGustKMH mph /  0 km/h - -
Direction :- - WNW
Pression : PressurehPa in /  0 hPa 1018.8 in /  34496.6 hPa -
Précipitations : 0.0 in /  0 mm    
Historical Graphs
 
 
Tableau de données pour novembre 11, 2017
Heure Tempé Pt rosée Pression Vent Vitesse Rafale Humidité Taux pluie (/hr) Soleil
TemperatureC °F /  -17.8 °C DewpointC °F /  -17.8 °C PressurehPa in /  0 hPa Calm     Humidity % HourlyPrecipMM in /  0 mm SolarRadiationWatts/m^2 W/m2 Conditions
00:00 11.3 °F /  -11.5 °C 9.9 °F /  -12.3 °C 1027.0 in /  34774.2 hPa NW 4.8 mph /  7.7 km/h 19.3 mph /  31.1 km/h 91 % 0.0 in /  0 mm 0 W/m2
00:10 11.3 °F /  -11.5 °C 9.9 °F /  -12.3 °C 1027.0 in /  34774.2 hPa West 6.4 mph /  10.3 km/h 14.5 mph /  23.3 km/h 91 % 0.0 in /  0 mm 0 W/m2
00:15 11.3 °F /  -11.5 °C 9.9 °F /  -12.3 °C 1027.0 in /  34774.2 hPa WNW 1.6 mph /  2.6 km/h 16.1 mph /  25.9 km/h 91 % 0.0 in /  0 mm 0 W/m2
00:20 11.3 °F /  -11.5 °C 9.9 °F /  -12.3 °C 1027.0 in /  34774.2 hPa WNW 4.8 mph /  7.7 km/h 16.1 mph /  25.9 km/h 91 % 0.0 in /  0 mm 0 W/m2
00:25 11.4 °F /  -11.4 °C 10.0 °F /  -12.2 °C 1027.0 in /  34774.2 hPa WNW 1.6 mph /  2.6 km/h 17.7 mph /  28.5 km/h 91 % 0.0 in /  0 mm 0 W/m2
00:30 11.3 °F /  -11.5 °C 9.9 °F /  -12.3 °C 1027.0 in /  34774.2 hPa NW 6.4 mph /  10.3 km/h 17.7 mph /  28.5 km/h 91 % 0.0 in /  0 mm 0 W/m2
00:35 11.3 °F /  -11.5 °C 9.7 °F /  -12.4 °C 1027.0 in /  34774.2 hPa NW 4.8 mph /  7.7 km/h 14.5 mph /  23.3 km/h 90 % 0.0 in /  0 mm 0 W/m2
00:40 11.3 °F /  -11.5 °C 9.9 °F /  -12.3 °C 1026.6 in /  34760.7 hPa West 4.8 mph /  7.7 km/h 14.5 mph /  23.3 km/h 91 % 0.0 in /  0 mm 0 W/m2
00:45 11.3 °F /  -11.5 °C 9.9 °F /  -12.3 °C 1026.6 in /  34760.7 hPa NW 9.7 mph /  15.6 km/h 12.9 mph /  20.8 km/h 91 % 0.0 in /  0 mm 0 W/m2
00:50 11.3 °F /  -11.5 °C 9.9 °F /  -12.3 °C 1026.6 in /  34760.7 hPa West 11.3 mph /  18.2 km/h 12.9 mph /  20.8 km/h 91 % 0.0 in /  0 mm 0 W/m2
00:55 11.3 °F /  -11.5 °C 9.9 °F /  -12.3 °C 1027.0 in /  34774.2 hPa WNW 8.0 mph /  12.9 km/h 12.9 mph /  20.8 km/h 91 % 0.0 in /  0 mm 0 W/m2
01:00 11.3 °F /  -11.5 °C 9.8 °F /  -12.3 °C 1027.0 in /  34774.2 hPa WNW 3.2 mph /  5.1 km/h 12.9 mph /  20.8 km/h 90 % 0.0 in /  0 mm 0 W/m2
01:05 11.3 °F /  -11.5 °C 9.9 °F /  -12.3 °C 1027.0 in /  34774.2 hPa WNW 1.6 mph /  2.6 km/h 12.9 mph /  20.8 km/h 91 % 0.0 in /  0 mm 0 W/m2
01:10 11.3 °F /  -11.5 °C 9.9 °F /  -12.3 °C 1026.6 in /  34760.7 hPa WNW 9.7 mph /  15.6 km/h 12.9 mph /  20.8 km/h 91 % 0.0 in /  0 mm 0 W/m2
01:15 11.3 °F /  -11.5 °C 9.9 °F /  -12.3 °C 1026.6 in /  34760.7 hPa West 3.2 mph /  5.1 km/h 9.7 mph /  15.6 km/h 91 % 0.0 in /  0 mm 0 W/m2
01:20 11.2 °F /  -11.6 °C 9.8 °F /  -12.3 °C 1026.6 in /  34760.7 hPa West 1.6 mph /  2.6 km/h 9.7 mph /  15.6 km/h 91 % 0.0 in /  0 mm 0 W/m2
01:25 11.1 °F /  -11.6 °C 9.6 °F /  -12.4 °C 1026.3 in /  34750.5 hPa Calm   8.0 mph /  12.9 km/h 91 % 0.0 in /  0 mm 0 W/m2
01:30 11.0 °F /  -11.7 °C 9.7 °F /  -12.4 °C 1026.3 in /  34750.5 hPa WNW 4.8 mph /  7.7 km/h 8.0 mph /  12.9 km/h 92 % 0.0 in /  0 mm 0 W/m2
01:35 10.9 °F /  -11.7 °C 9.7 °F /  -12.4 °C 1026.3 in /  34750.5 hPa WNW 3.2 mph /  5.1 km/h 8.0 mph /  12.9 km/h 92 % 0.0 in /  0 mm 0 W/m2
01:40 10.8 °F /  -11.8 °C 9.6 °F /  -12.4 °C 1026.3 in /  34750.5 hPa West 4.8 mph /  7.7 km/h 8.0 mph /  12.9 km/h 92 % 0.0 in /  0 mm 0 W/m2
01:45 10.8 °F /  -11.8 °C 9.7 °F /  -12.4 °C 1026.3 in /  34750.5 hPa WNW 1.6 mph /  2.6 km/h 8.0 mph /  12.9 km/h 93 % 0.0 in /  0 mm 0 W/m2
01:55 11.0 °F /  -11.7 °C 9.9 °F /  -12.3 °C 1026.0 in /  34740.4 hPa West 4.8 mph /  7.7 km/h 6.4 mph /  10.3 km/h 93 % 0.0 in /  0 mm 0 W/m2
02:00 11.2 °F /  -11.6 °C 10.3 °F /  -12.1 °C 1026.0 in /  34740.4 hPa WSW 6.4 mph /  10.3 km/h 12.9 mph /  20.8 km/h 94 % 0.0 in /  0 mm 0 W/m2
02:05 11.4 °F /  -11.4 °C 10.3 °F /  -12.1 °C 1026.0 in /  34740.4 hPa NW 3.2 mph /  5.1 km/h 12.9 mph /  20.8 km/h 93 % 0.0 in /  0 mm 0 W/m2
02:10 11.4 °F /  -11.4 °C 10.4 °F /  -12 °C 1026.0 in /  34740.4 hPa West 4.8 mph /  7.7 km/h 8.0 mph /  12.9 km/h 93 % 0.0 in /  0 mm 0 W/m2
02:15 11.7 °F /  -11.3 °C 10.6 °F /  -11.9 °C 1026.0 in /  34740.4 hPa NW 9.7 mph /  15.6 km/h 11.3 mph /  18.2 km/h 93 % 0.0 in /  0 mm 0 W/m2
02:20 11.9 °F /  -11.2 °C 10.8 °F /  -11.8 °C 1025.6 in /  34726.8 hPa NW 8.0 mph /  12.9 km/h 12.9 mph /  20.8 km/h 93 % 0.0 in /  0 mm 0 W/m2
02:25 12.1 °F /  -11.1 °C 11.0 °F /  -11.7 °C 1025.6 in /  34726.8 hPa NW 3.2 mph /  5.1 km/h 12.9 mph /  20.8 km/h 93 % 0.0 in /  0 mm 0 W/m2
02:30 12.3 °F /  -10.9 °C 11.2 °F /  -11.6 °C 1025.3 in /  34716.7 hPa NW 12.9 mph /  20.8 km/h 12.9 mph /  20.8 km/h 93 % 0.0 in /  0 mm 0 W/m2
02:35 12.3 °F /  -10.9 °C 11.1 °F /  -11.6 °C 1025.3 in /  34716.7 hPa WSW 9.7 mph /  15.6 km/h 12.9 mph /  20.8 km/h 92 % 0.0 in /  0 mm 0 W/m2
02:40 12.4 °F /  -10.9 °C 11.2 °F /  -11.6 °C 1024.9 in /  34703.1 hPa NW 9.7 mph /  15.6 km/h 12.9 mph /  20.8 km/h 92 % 0.0 in /  0 mm 0 W/m2
02:45 12.6 °F /  -10.8 °C 11.3 °F /  -11.5 °C 1024.9 in /  34703.1 hPa West 9.7 mph /  15.6 km/h 12.9 mph /  20.8 km/h 92 % 0.0 in /  0 mm 0 W/m2
02:50 12.7 °F /  -10.7 °C 11.4 °F /  -11.4 °C 1024.9 in /  34703.1 hPa WNW 12.9 mph /  20.8 km/h 17.7 mph /  28.5 km/h 92 % 0.0 in /  0 mm 0 W/m2
02:55 12.8 °F /  -10.7 °C 11.5 °F /  -11.4 °C 1024.9 in /  34703.1 hPa WNW 12.9 mph /  20.8 km/h 17.7 mph /  28.5 km/h 92 % 0.0 in /  0 mm 0 W/m2
03:00 12.8 °F /  -10.7 °C 11.6 °F /  -11.3 °C 1024.9 in /  34703.1 hPa West 8.0 mph /  12.9 km/h 17.7 mph /  28.5 km/h 92 % 0.0 in /  0 mm 0 W/m2
03:05 12.9 °F /  -10.6 °C 11.7 °F /  -11.3 °C 1024.9 in /  34703.1 hPa West 8.0 mph /  12.9 km/h 19.3 mph /  31.1 km/h 92 % 0.0 in /  0 mm 0 W/m2
03:10 13.0 °F /  -10.6 °C 11.7 °F /  -11.3 °C 1024.9 in /  34703.1 hPa West 14.5 mph /  23.3 km/h 19.3 mph /  31.1 km/h 92 % 0.0 in /  0 mm 0 W/m2
03:15 13.1 °F /  -10.5 °C 11.8 °F /  -11.2 °C 1024.9 in /  34703.1 hPa West 12.9 mph /  20.8 km/h 19.3 mph /  31.1 km/h 92 % 0.0 in /  0 mm 0 W/m2
03:20 13.1 °F /  -10.5 °C 11.8 °F /  -11.2 °C 1024.9 in /  34703.1 hPa WNW 11.3 mph /  18.2 km/h 19.3 mph /  31.1 km/h 92 % 0.0 in /  0 mm 0 W/m2
03:25 13.1 °F /  -10.5 °C 11.8 °F /  -11.2 °C 1024.6 in /  34693 hPa West 6.4 mph /  10.3 km/h 20.9 mph /  33.6 km/h 92 % 0.0 in /  0 mm 0 W/m2
03:30 13.1 °F /  -10.5 °C 11.8 °F /  -11.2 °C 1024.6 in /  34693 hPa West 12.9 mph /  20.8 km/h 22.5 mph /  36.2 km/h 92 % 0.0 in /  0 mm 0 W/m2
03:35 13.1 °F /  -10.5 °C 11.8 °F /  -11.2 °C 1024.6 in /  34693 hPa WNW 12.9 mph /  20.8 km/h 24.1 mph /  38.8 km/h 92 % 0.0 in /  0 mm 0 W/m2
03:40 13.0 °F /  -10.6 °C 11.9 °F /  -11.2 °C 1024.6 in /  34693 hPa WSW 9.7 mph /  15.6 km/h 24.1 mph /  38.8 km/h 93 % 0.0 in /  0 mm 0 W/m2
03:45 12.9 °F /  -10.6 °C 11.8 °F /  -11.2 °C 1024.6 in /  34693 hPa WNW 6.4 mph /  10.3 km/h 19.3 mph /  31.1 km/h 93 % 0.0 in /  0 mm 0 W/m2
03:50 13.0 °F /  -10.6 °C 11.9 °F /  -11.2 °C 1024.3 in /  34682.8 hPa West 14.5 mph /  23.3 km/h 24.1 mph /  38.8 km/h 93 % 0.0 in /  0 mm 0 W/m2
03:55 13.0 °F /  -10.6 °C 11.9 °F /  -11.2 °C 1024.3 in /  34682.8 hPa WNW 8.0 mph /  12.9 km/h 24.1 mph /  38.8 km/h 93 % 0.0 in /  0 mm 0 W/m2
04:00 13.1 °F /  -10.5 °C 11.9 °F /  -11.2 °C 1024.3 in /  34682.8 hPa NW 12.9 mph /  20.8 km/h 24.1 mph /  38.8 km/h 93 % 0.0 in /  0 mm 0 W/m2
04:05 13.1 °F /  -10.5 °C 11.8 °F /  -11.2 °C 1024.3 in /  34682.8 hPa WNW 8.0 mph /  12.9 km/h 27.4 mph /  44.1 km/h 92 % 0.0 in /  0 mm 0 W/m2
04:10 13.1 °F /  -10.5 °C 11.8 °F /  -11.2 °C 1024.3 in /  34682.8 hPa SW 11.3 mph /  18.2 km/h 27.4 mph /  44.1 km/h 92 % 0.0 in /  0 mm 0 W/m2
04:20 13.0 °F /  -10.6 °C 11.7 °F /  -11.3 °C 1024.3 in /  34682.8 hPa WNW 11.3 mph /  18.2 km/h 29.0 mph /  46.7 km/h 92 % 0.0 in /  0 mm 0 W/m2
04:25 13.1 °F /  -10.5 °C 11.6 °F /  -11.3 °C 1023.9 in /  34669.3 hPa NW 8.0 mph /  12.9 km/h 29.0 mph /  46.7 km/h 91 % 0.0 in /  0 mm 0 W/m2
04:30 13.1 °F /  -10.5 °C 11.6 °F /  -11.3 °C 1023.9 in /  34669.3 hPa WNW 6.4 mph /  10.3 km/h 20.9 mph /  33.6 km/h 91 % 0.0 in /  0 mm 0 W/m2
04:40 13.0 °F /  -10.6 °C 11.6 °F /  -11.3 °C 1023.9 in /  34669.3 hPa WNW 3.2 mph /  5.1 km/h 25.7 mph /  41.4 km/h 91 % 0.0 in /  0 mm 0 W/m2
04:45 13.1 °F /  -10.5 °C 11.6 °F /  -11.3 °C 1023.9 in /  34669.3 hPa WNW 9.7 mph /  15.6 km/h 24.1 mph /  38.8 km/h 91 % 0.0 in /  0 mm 0 W/m2
04:50 13.1 °F /  -10.5 °C 11.5 °F /  -11.4 °C 1023.9 in /  34669.3 hPa WNW 8.0 mph /  12.9 km/h 27.4 mph /  44.1 km/h 90 % 0.0 in /  0 mm 0 W/m2
04:55 13.1 °F /  -10.5 °C 11.5 °F /  -11.4 °C 1023.9 in /  34669.3 hPa West 11.3 mph /  18.2 km/h 30.6 mph /  49.2 km/h 90 % 0.0 in /  0 mm 0 W/m2
05:00 13.1 °F /  -10.5 °C 11.5 °F /  -11.4 °C 1023.9 in /  34669.3 hPa West 9.7 mph /  15.6 km/h 30.6 mph /  49.2 km/h 90 % 0.0 in /  0 mm 0 W/m2
05:05 13.0 °F /  -10.6 °C 11.4 °F /  -11.4 °C 1023.9 in /  34669.3 hPa NW 6.4 mph /  10.3 km/h 22.5 mph /  36.2 km/h 90 % 0.0 in /  0 mm 0 W/m2
05:10 13.0 °F /  -10.6 °C 11.6 °F /  -11.3 °C 1023.6 in /  34659.1 hPa NW 11.3 mph /  18.2 km/h 22.5 mph /  36.2 km/h 91 % 0.0 in /  0 mm 0 W/m2
05:15 13.0 °F /  -10.6 °C 11.7 °F /  -11.3 °C 1023.6 in /  34659.1 hPa WNW 8.0 mph /  12.9 km/h 22.5 mph /  36.2 km/h 92 % 0.0 in /  0 mm 0 W/m2
05:20 13.0 °F /  -10.6 °C 11.7 °F /  -11.3 °C 1023.6 in /  34659.1 hPa NW 12.9 mph /  20.8 km/h 25.7 mph /  41.4 km/h 92 % 0.0 in /  0 mm 0 W/m2
05:25 13.1 °F /  -10.5 °C 11.8 °F /  -11.2 °C 1023.6 in /  34659.1 hPa WNW 12.9 mph /  20.8 km/h 25.7 mph /  41.4 km/h 92 % 0.0 in /  0 mm 0 W/m2
05:30 12.9 °F /  -10.6 °C 11.5 °F /  -11.4 °C 1023.6 in /  34659.1 hPa NW 22.5 mph /  36.2 km/h 33.8 mph /  54.4 km/h 91 % 0.0 in /  0 mm 0 W/m2
05:35 12.7 °F /  -10.7 °C 11.3 °F /  -11.5 °C 1023.6 in /  34659.1 hPa NW 11.3 mph /  18.2 km/h 33.8 mph /  54.4 km/h 91 % 0.0 in /  0 mm 0 W/m2
05:45 12.6 °F /  -10.8 °C 11.3 °F /  -11.5 °C 1023.6 in /  34659.1 hPa NW 14.5 mph /  23.3 km/h 19.3 mph /  31.1 km/h 92 % 0.0 in /  0 mm 0 W/m2
05:50 12.6 °F /  -10.8 °C 11.3 °F /  -11.5 °C 1023.2 in /  34645.6 hPa West 14.5 mph /  23.3 km/h 19.3 mph /  31.1 km/h 92 % 0.0 in /  0 mm 0 W/m2
05:55 12.7 °F /  -10.7 °C 11.5 °F /  -11.4 °C 1023.2 in /  34645.6 hPa WNW 4.8 mph /  7.7 km/h 20.9 mph /  33.6 km/h 92 % 0.0 in /  0 mm 0 W/m2
06:00 12.8 °F /  -10.7 °C 11.6 °F /  -11.3 °C 1023.2 in /  34645.6 hPa WNW 11.3 mph /  18.2 km/h 24.1 mph /  38.8 km/h 92 % 0.0 in /  0 mm 0 W/m2
06:05 12.8 °F /  -10.7 °C 11.5 °F /  -11.4 °C 1023.6 in /  34659.1 hPa NW 11.3 mph /  18.2 km/h 25.7 mph /  41.4 km/h 92 % 0.0 in /  0 mm 0 W/m2
06:10 12.4 °F /  -10.9 °C 11.3 °F /  -11.5 °C 1023.2 in /  34645.6 hPa West 12.9 mph /  20.8 km/h 25.7 mph /  41.4 km/h 93 % 0.0 in /  0 mm 0 W/m2
06:15 12.3 °F /  -10.9 °C 11.2 °F /  -11.6 °C 1023.2 in /  34645.6 hPa WNW 4.8 mph /  7.7 km/h 22.5 mph /  36.2 km/h 93 % 0.0 in /  0 mm 0 W/m2
06:20 12.3 °F /  -10.9 °C 11.2 °F /  -11.6 °C 1023.2 in /  34645.6 hPa West 3.2 mph /  5.1 km/h 25.7 mph /  41.4 km/h 93 % 0.0 in /  0 mm 0 W/m2
06:25 12.4 °F /  -10.9 °C 11.3 °F /  -11.5 °C 1023.2 in /  34645.6 hPa WNW 6.4 mph /  10.3 km/h 25.7 mph /  41.4 km/h 93 % 0.0 in /  0 mm 0 W/m2
06:30 12.4 °F /  -10.9 °C 11.3 °F /  -11.5 °C 1023.2 in /  34645.6 hPa NW 3.2 mph /  5.1 km/h 19.3 mph /  31.1 km/h 93 % 0.0 in /  0 mm 0 W/m2
06:35 12.5 °F /  -10.8 °C 11.4 °F /  -11.4 °C 1022.9 in /  34635.4 hPa West 6.4 mph /  10.3 km/h 17.7 mph /  28.5 km/h 93 % 0.0 in /  0 mm 0 W/m2
06:40 12.6 °F /  -10.8 °C 11.3 °F /  -11.5 °C 1022.9 in /  34635.4 hPa West 14.5 mph /  23.3 km/h 17.7 mph /  28.5 km/h 92 % 0.0 in /  0 mm 0 W/m2
06:45 12.7 °F /  -10.7 °C 11.2 °F /  -11.6 °C 1022.6 in /  34625.2 hPa WSW 14.5 mph /  23.3 km/h 22.5 mph /  36.2 km/h 91 % 0.0 in /  0 mm 0 W/m2
06:50 12.9 °F /  -10.6 °C 11.3 °F /  -11.5 °C 1022.9 in /  34635.4 hPa West 17.7 mph /  28.5 km/h 22.5 mph /  36.2 km/h 90 % 0.0 in /  0 mm 0 W/m2
06:55 13.0 °F /  -10.6 °C 11.2 °F /  -11.6 °C 1022.6 in /  34625.2 hPa WNW 3.2 mph /  5.1 km/h 27.4 mph /  44.1 km/h 89 % 0.0 in /  0 mm 0 W/m2
07:00 13.1 °F /  -10.5 °C 11.3 °F /  -11.5 °C 1022.6 in /  34625.2 hPa WNW 12.9 mph /  20.8 km/h 27.4 mph /  44.1 km/h 89 % 0.0 in /  0 mm 0 W/m2
07:10 13.1 °F /  -10.5 °C 11.6 °F /  -11.3 °C 1022.6 in /  34625.2 hPa WNW 19.3 mph /  31.1 km/h 24.1 mph /  38.8 km/h 91 % 0.0 in /  0 mm 0 W/m2
07:15 13.1 °F /  -10.5 °C 11.6 °F /  -11.3 °C 1022.6 in /  34625.2 hPa NW 16.1 mph /  25.9 km/h 30.6 mph /  49.2 km/h 91 % 0.0 in /  0 mm 0 W/m2
07:20 13.0 °F /  -10.6 °C 11.6 °F /  -11.3 °C 1022.6 in /  34625.2 hPa WNW 12.9 mph /  20.8 km/h 30.6 mph /  49.2 km/h 91 % 0.0 in /  0 mm 0 W/m2
07:25 13.0 °F /  -10.6 °C 11.6 °F /  -11.3 °C 1022.6 in /  34625.2 hPa West 9.7 mph /  15.6 km/h 25.7 mph /  41.4 km/h 91 % 0.0 in /  0 mm 0 W/m2
07:30 12.9 °F /  -10.6 °C 11.5 °F /  -11.4 °C 1022.2 in /  34611.7 hPa NW 8.0 mph /  12.9 km/h 20.9 mph /  33.6 km/h 91 % 0.0 in /  0 mm 0 W/m2
07:35 13.0 °F /  -10.6 °C 11.6 °F /  -11.3 °C 1022.2 in /  34611.7 hPa West 9.7 mph /  15.6 km/h 19.3 mph /  31.1 km/h 91 % 0.0 in /  0 mm 0 W/m2
07:40 13.0 °F /  -10.6 °C 11.6 °F /  -11.3 °C 1022.2 in /  34611.7 hPa WNW 11.3 mph /  18.2 km/h 19.3 mph /  31.1 km/h 91 % 0.0 in /  0 mm 0 W/m2
07:45 13.1 °F /  -10.5 °C 11.5 °F /  -11.4 °C 1022.2 in /  34611.7 hPa WNW 16.1 mph /  25.9 km/h 29.0 mph /  46.7 km/h 90 % 0.0 in /  0 mm 0 W/m2
07:50 13.2 °F /  -10.4 °C 11.6 °F /  -11.3 °C 1022.2 in /  34611.7 hPa WNW 12.9 mph /  20.8 km/h 30.6 mph /  49.2 km/h 90 % 0.0 in /  0 mm 0 W/m2
08:00 13.3 °F /  -10.4 °C 11.7 °F /  -11.3 °C 1022.2 in /  34611.7 hPa West 20.9 mph /  33.6 km/h 30.6 mph /  49.2 km/h 90 % 0.0 in /  0 mm 0 W/m2
08:05 13.4 °F /  -10.3 °C 11.8 °F /  -11.2 °C 1022.2 in /  34611.7 hPa NW 14.5 mph /  23.3 km/h 30.6 mph /  49.2 km/h 90 % 0.0 in /  0 mm 0 W/m2
08:10 13.4 °F /  -10.3 °C 12.0 °F /  -11.1 °C 1022.2 in /  34611.7 hPa WNW 12.9 mph /  20.8 km/h 32.2 mph /  51.8 km/h 91 % 0.0 in /  0 mm 0 W/m2
08:20 13.2 °F /  -10.4 °C 12.0 °F /  -11.1 °C 1022.2 in /  34611.7 hPa NW 11.3 mph /  18.2 km/h 30.6 mph /  49.2 km/h 92 % 0.0 in /  0 mm 0 W/m2
08:25 13.1 °F /  -10.5 °C 11.8 °F /  -11.2 °C 1021.9 in /  34601.5 hPa West 12.9 mph /  20.8 km/h 32.2 mph /  51.8 km/h 92 % 0.0 in /  0 mm 11 W/m2
08:30 13.1 °F /  -10.5 °C 11.8 °F /  -11.2 °C 1021.9 in /  34601.5 hPa WNW 14.5 mph /  23.3 km/h 32.2 mph /  51.8 km/h 92 % 0.0 in /  0 mm 18 W/m2
08:35 13.1 °F /  -10.5 °C 11.8 °F /  -11.2 °C 1021.9 in /  34601.5 hPa West 9.7 mph /  15.6 km/h 29.0 mph /  46.7 km/h 92 % 0.0 in /  0 mm 19 W/m2
08:40 13.1 °F /  -10.5 °C 11.8 °F /  -11.2 °C 1021.9 in /  34601.5 hPa WNW 20.9 mph /  33.6 km/h 20.9 mph /  33.6 km/h 92 % 0.0 in /  0 mm 16 W/m2
08:45 13.1 °F /  -10.5 °C 11.7 °F /  -11.3 °C 1021.9 in /  34601.5 hPa WNW 11.3 mph /  18.2 km/h 20.9 mph /  33.6 km/h 91 % 0.0 in /  0 mm 16 W/m2
08:50 13.1 °F /  -10.5 °C 11.7 °F /  -11.3 °C 1022.2 in /  34611.7 hPa WNW 9.7 mph /  15.6 km/h 22.5 mph /  36.2 km/h 91 % 0.0 in /  0 mm 21 W/m2
08:55 13.2 °F /  -10.4 °C 11.6 °F /  -11.3 °C 1022.2 in /  34611.7 hPa West 6.4 mph /  10.3 km/h 22.5 mph /  36.2 km/h 90 % 0.0 in /  0 mm 21 W/m2
09:00 13.2 °F /  -10.4 °C 11.6 °F /  -11.3 °C 1022.2 in /  34611.7 hPa WNW 11.3 mph /  18.2 km/h 25.7 mph /  41.4 km/h 90 % 0.0 in /  0 mm 18 W/m2
09:05 13.3 °F /  -10.4 °C 11.6 °F /  -11.3 °C 1021.9 in /  34601.5 hPa NW 8.0 mph /  12.9 km/h 25.7 mph /  41.4 km/h 89 % 0.0 in /  0 mm 16 W/m2
09:10 13.4 °F /  -10.3 °C 11.6 °F /  -11.3 °C 1021.9 in /  34601.5 hPa WNW 9.7 mph /  15.6 km/h 22.5 mph /  36.2 km/h 89 % 0.0 in /  0 mm 23 W/m2
09:15 13.4 °F /  -10.3 °C 11.8 °F /  -11.2 °C 1021.9 in /  34601.5 hPa WNW 9.7 mph /  15.6 km/h 24.1 mph /  38.8 km/h 90 % 0.0 in /  0 mm 14 W/m2
09:20 13.4 °F /  -10.3 °C 11.8 °F /  -11.2 °C 1021.9 in /  34601.5 hPa West 12.9 mph /  20.8 km/h 24.1 mph /  38.8 km/h 90 % 0.0 in /  0 mm 14 W/m2
09:25 13.3 °F /  -10.4 °C 11.9 °F /  -11.2 °C 1021.9 in /  34601.5 hPa WNW 17.7 mph /  28.5 km/h 24.1 mph /  38.8 km/h 91 % 0.0 in /  0 mm 14 W/m2
09:30 13.2 °F /  -10.4 °C 11.9 °F /  -11.2 °C 1021.9 in /  34601.5 hPa West 8.0 mph /  12.9 km/h 32.2 mph /  51.8 km/h 92 % 0.0 in /  0 mm 28 W/m2
09:35 13.1 °F /  -10.5 °C 12.0 °F /  -11.1 °C 1021.9 in /  34601.5 hPa WNW 8.0 mph /  12.9 km/h 32.2 mph /  51.8 km/h 93 % 0.0 in /  0 mm 84 W/m2
09:40 13.2 °F /  -10.4 °C 12.1 °F /  -11.1 °C 1021.9 in /  34601.5 hPa NW 6.4 mph /  10.3 km/h 22.5 mph /  36.2 km/h 93 % 0.0 in /  0 mm 56 W/m2
09:45 13.3 °F /  -10.4 °C 12.2 °F /  -11 °C 1021.9 in /  34601.5 hPa West 19.3 mph /  31.1 km/h 32.2 mph /  51.8 km/h 93 % 0.0 in /  0 mm 32 W/m2
09:50 13.3 °F /  -10.4 °C 12.2 °F /  -11 °C 1021.6 in /  34591.4 hPa NW 16.1 mph /  25.9 km/h 32.2 mph /  51.8 km/h 93 % 0.0 in /  0 mm 65 W/m2
09:55 13.3 °F /  -10.4 °C 12.2 °F /  -11 °C 1021.6 in /  34591.4 hPa NW 11.3 mph /  18.2 km/h 32.2 mph /  51.8 km/h 93 % 0.0 in /  0 mm 58 W/m2
10:00 13.4 °F /  -10.3 °C 12.3 °F /  -10.9 °C 1021.9 in /  34601.5 hPa SW 11.3 mph /  18.2 km/h 27.4 mph /  44.1 km/h 93 % 0.0 in /  0 mm 70 W/m2
10:05 13.4 °F /  -10.3 °C 12.3 °F /  -10.9 °C 1021.6 in /  34591.4 hPa West 11.3 mph /  18.2 km/h 25.7 mph /  41.4 km/h 93 % 0.0 in /  0 mm 53 W/m2
10:10 13.6 °F /  -10.2 °C 12.4 °F /  -10.9 °C 1021.6 in /  34591.4 hPa West 24.1 mph /  38.8 km/h 24.1 mph /  38.8 km/h 93 % 0.0 in /  0 mm 53 W/m2
10:15 13.6 °F /  -10.2 °C 12.3 °F /  -10.9 °C 1021.6 in /  34591.4 hPa West 14.5 mph /  23.3 km/h 25.7 mph /  41.4 km/h 92 % 0.0 in /  0 mm 19 W/m2
10:20 13.6 °F /  -10.2 °C 12.3 °F /  -10.9 °C 1021.6 in /  34591.4 hPa WNW 11.3 mph /  18.2 km/h 25.7 mph /  41.4 km/h 92 % 0.0 in /  0 mm 23 W/m2
10:25 13.6 °F /  -10.2 °C 12.3 °F /  -10.9 °C 1021.6 in /  34591.4 hPa West 16.1 mph /  25.9 km/h 25.7 mph /  41.4 km/h 92 % 0.0 in /  0 mm 30 W/m2
10:30 13.6 °F /  -10.2 °C 12.3 °F /  -10.9 °C 1021.6 in /  34591.4 hPa WNW 12.9 mph /  20.8 km/h 29.0 mph /  46.7 km/h 92 % 0.0 in /  0 mm 30 W/m2
10:35 13.6 °F /  -10.2 °C 12.3 °F /  -10.9 °C 1021.6 in /  34591.4 hPa NW 16.1 mph /  25.9 km/h 29.0 mph /  46.7 km/h 92 % 0.0 in /  0 mm 44 W/m2
10:40 13.7 °F /  -10.2 °C 12.6 °F /  -10.8 °C 1021.6 in /  34591.4 hPa West 27.4 mph /  44.1 km/h 32.2 mph /  51.8 km/h 93 % 0.0 in /  0 mm 28 W/m2
10:45 13.7 °F /  -10.2 °C 12.6 °F /  -10.8 °C 1021.6 in /  34591.4 hPa NW 11.3 mph /  18.2 km/h 32.2 mph /  51.8 km/h 93 % 0.0 in /  0 mm 42 W/m2
10:50 13.7 °F /  -10.2 °C 12.6 °F /  -10.8 °C 1021.6 in /  34591.4 hPa West 24.1 mph /  38.8 km/h 30.6 mph /  49.2 km/h 93 % 0.0 in /  0 mm 49 W/m2
10:55 13.7 °F /  -10.2 °C 12.6 °F /  -10.8 °C 1021.2 in /  34577.8 hPa West 22.5 mph /  36.2 km/h 33.8 mph /  54.4 km/h 93 % 0.0 in /  0 mm 67 W/m2
11:00 13.8 °F /  -10.1 °C 12.7 °F /  -10.7 °C 1021.2 in /  34577.8 hPa WNW 12.9 mph /  20.8 km/h 33.8 mph /  54.4 km/h 93 % 0.0 in /  0 mm 63 W/m2
11:05 13.8 °F /  -10.1 °C 12.7 °F /  -10.7 °C 1021.2 in /  34577.8 hPa WNW 20.9 mph /  33.6 km/h 30.6 mph /  49.2 km/h 93 % 0.0 in /  0 mm 69 W/m2
11:10 13.8 °F /  -10.1 °C 12.7 °F /  -10.7 °C 1021.2 in /  34577.8 hPa NW 8.0 mph /  12.9 km/h 30.6 mph /  49.2 km/h 93 % 0.0 in /  0 mm 88 W/m2
11:15 13.8 °F /  -10.1 °C 12.7 °F /  -10.7 °C 1021.2 in /  34577.8 hPa West 8.0 mph /  12.9 km/h 32.2 mph /  51.8 km/h 93 % 0.0 in /  0 mm 113 W/m2
11:20 13.9 °F /  -10.1 °C 12.8 °F /  -10.7 °C 1021.2 in /  34577.8 hPa WNW 12.9 mph /  20.8 km/h 32.2 mph /  51.8 km/h 93 % 0.0 in /  0 mm 74 W/m2
11:25 13.9 °F /  -10.1 °C 12.8 °F /  -10.7 °C 1021.2 in /  34577.8 hPa NW 6.4 mph /  10.3 km/h 27.4 mph /  44.1 km/h 93 % 0.0 in /  0 mm 40 W/m2
11:30 13.9 °F /  -10.1 °C 12.8 °F /  -10.7 °C 1021.2 in /  34577.8 hPa WNW 20.9 mph /  33.6 km/h 32.2 mph /  51.8 km/h 93 % 0.0 in /  0 mm 53 W/m2
11:35 14.0 °F /  -10 °C 12.9 °F /  -10.6 °C 1021.2 in /  34577.8 hPa West 19.3 mph /  31.1 km/h 32.2 mph /  51.8 km/h 93 % 0.0 in /  0 mm 74 W/m2
11:40 14.1 °F /  -9.9 °C 12.9 °F /  -10.6 °C 1021.2 in /  34577.8 hPa WSW 12.9 mph /  20.8 km/h 32.2 mph /  51.8 km/h 93 % 0.0 in /  0 mm 84 W/m2
11:45 14.1 °F /  -9.9 °C 13.0 °F /  -10.6 °C 1020.9 in /  34567.7 hPa West 9.7 mph /  15.6 km/h 32.2 mph /  51.8 km/h 93 % 0.0 in /  0 mm 56 W/m2
11:50 14.1 °F /  -9.9 °C 13.0 °F /  -10.6 °C 1020.9 in /  34567.7 hPa NW 20.9 mph /  33.6 km/h 25.7 mph /  41.4 km/h 93 % 0.0 in /  0 mm 70 W/m2
11:55 14.2 °F /  -9.9 °C 13.1 °F /  -10.5 °C 1020.9 in /  34567.7 hPa NW 16.1 mph /  25.9 km/h 27.4 mph /  44.1 km/h 93 % 0.0 in /  0 mm 54 W/m2
12:00 14.2 °F /  -9.9 °C 12.9 °F /  -10.6 °C 1020.9 in /  34567.7 hPa WNW 17.7 mph /  28.5 km/h 35.4 mph /  57 km/h 92 % 0.0 in /  0 mm 56 W/m2
12:05 14.2 °F /  -9.9 °C 12.9 °F /  -10.6 °C 1020.9 in /  34567.7 hPa WNW 11.3 mph /  18.2 km/h 35.4 mph /  57 km/h 92 % 0.0 in /  0 mm 123 W/m2
12:10 14.3 °F /  -9.8 °C 13.0 °F /  -10.6 °C 1020.9 in /  34567.7 hPa West 17.7 mph /  28.5 km/h 33.8 mph /  54.4 km/h 92 % 0.0 in /  0 mm 72 W/m2
12:15 14.3 °F /  -9.8 °C 13.1 °F /  -10.5 °C 1020.5 in /  34554.1 hPa NW 12.9 mph /  20.8 km/h 32.2 mph /  51.8 km/h 92 % 0.0 in /  0 mm 123 W/m2
12:25 14.6 °F /  -9.7 °C 13.3 °F /  -10.4 °C 1020.5 in /  34554.1 hPa WNW 20.9 mph /  33.6 km/h 35.4 mph /  57 km/h 92 % 0.0 in /  0 mm 153 W/m2
12:30 14.6 °F /  -9.7 °C 13.3 °F /  -10.4 °C 1020.5 in /  34554.1 hPa WNW 16.1 mph /  25.9 km/h 40.2 mph /  64.7 km/h 92 % 0.0 in /  0 mm 134 W/m2
12:35 14.5 °F /  -9.7 °C 13.0 °F /  -10.6 °C 1020.5 in /  34554.1 hPa WNW 8.0 mph /  12.9 km/h 40.2 mph /  64.7 km/h 91 % 0.0 in /  0 mm 148 W/m2
12:40 14.5 °F /  -9.7 °C 13.0 °F /  -10.6 °C 1020.5 in /  34554.1 hPa WNW 11.3 mph /  18.2 km/h 33.8 mph /  54.4 km/h 91 % 0.0 in /  0 mm 137 W/m2
12:45 14.6 °F /  -9.7 °C 12.9 °F /  -10.6 °C 1020.5 in /  34554.1 hPa WNW 22.5 mph /  36.2 km/h 32.2 mph /  51.8 km/h 90 % 0.0 in /  0 mm 146 W/m2
12:50 14.6 °F /  -9.7 °C 13.0 °F /  -10.6 °C 1020.2 in /  34544 hPa WNW 19.3 mph /  31.1 km/h 32.2 mph /  51.8 km/h 90 % 0.0 in /  0 mm 128 W/m2
12:55 14.6 °F /  -9.7 °C 13.0 °F /  -10.6 °C 1020.2 in /  34544 hPa WNW 12.9 mph /  20.8 km/h 45.1 mph /  72.6 km/h 90 % 0.0 in /  0 mm 121 W/m2
13:00 14.7 °F /  -9.6 °C 13.1 °F /  -10.5 °C 1020.2 in /  34544 hPa NW 25.7 mph /  41.4 km/h 45.1 mph /  72.6 km/h 90 % 0.0 in /  0 mm 271 W/m2
13:05 14.9 °F /  -9.5 °C 13.1 °F /  -10.5 °C 1020.2 in /  34544 hPa NW 24.1 mph /  38.8 km/h 38.6 mph /  62.1 km/h 89 % 0.0 in /  0 mm 183 W/m2
13:10 15.0 °F /  -9.4 °C 13.2 °F /  -10.4 °C 1020.2 in /  34544 hPa WNW 14.5 mph /  23.3 km/h 38.6 mph /  62.1 km/h 89 % 0.0 in /  0 mm 209 W/m2
13:15 15.0 °F /  -9.4 °C 13.0 °F /  -10.6 °C 1020.2 in /  34544 hPa WNW 17.7 mph /  28.5 km/h 46.7 mph /  75.2 km/h 88 % 0.0 in /  0 mm 155 W/m2
13:20 14.9 °F /  -9.5 °C 13.1 °F /  -10.5 °C 1019.9 in /  34533.8 hPa West 12.9 mph /  20.8 km/h 46.7 mph /  75.2 km/h 89 % 0.0 in /  0 mm 102 W/m2
13:25 14.8 °F /  -9.6 °C 13.0 °F /  -10.6 °C 1019.9 in /  34533.8 hPa West 12.9 mph /  20.8 km/h 37.0 mph /  59.5 km/h 89 % 0.0 in /  0 mm 116 W/m2
13:30 14.8 °F /  -9.6 °C 13.0 °F /  -10.6 °C 1019.9 in /  34533.8 hPa WNW 22.5 mph /  36.2 km/h 35.4 mph /  57 km/h 89 % 0.0 in /  0 mm 135 W/m2
13:35 14.8 °F /  -9.6 °C 13.0 °F /  -10.6 °C 1019.9 in /  34533.8 hPa WNW 12.9 mph /  20.8 km/h 35.4 mph /  57 km/h 89 % 0.0 in /  0 mm 116 W/m2
13:40 14.8 °F /  -9.6 °C 13.0 °F /  -10.6 °C 1019.9 in /  34533.8 hPa NW 14.5 mph /  23.3 km/h 40.2 mph /  64.7 km/h 89 % 0.0 in /  0 mm 102 W/m2
13:45 14.7 °F /  -9.6 °C 13.0 °F /  -10.6 °C 1019.9 in /  34533.8 hPa West 17.7 mph /  28.5 km/h 40.2 mph /  64.7 km/h 90 % 0.0 in /  0 mm 84 W/m2
13:50 14.6 °F /  -9.7 °C 12.9 °F /  -10.6 °C 1019.9 in /  34533.8 hPa WNW 11.3 mph /  18.2 km/h 30.6 mph /  49.2 km/h 90 % 0.0 in /  0 mm 91 W/m2
13:55 14.6 °F /  -9.7 °C 12.9 °F /  -10.6 °C 1019.5 in /  34520.3 hPa West 22.5 mph /  36.2 km/h 40.2 mph /  64.7 km/h 90 % 0.0 in /  0 mm 105 W/m2
14:00 14.5 °F /  -9.7 °C 13.0 °F /  -10.6 °C 1019.5 in /  34520.3 hPa WNW 14.5 mph /  23.3 km/h 40.2 mph /  64.7 km/h 91 % 0.0 in /  0 mm 125 W/m2
14:05 14.6 °F /  -9.7 °C 12.9 °F /  -10.6 °C 1019.5 in /  34520.3 hPa West 6.4 mph /  10.3 km/h 40.2 mph /  64.7 km/h 90 % 0.0 in /  0 mm 123 W/m2
14:10 14.5 °F /  -9.7 °C 12.9 °F /  -10.6 °C 1019.5 in /  34520.3 hPa WNW 25.7 mph /  41.4 km/h 43.4 mph /  69.8 km/h 90 % 0.0 in /  0 mm 72 W/m2
14:15 14.4 °F /  -9.8 °C 12.8 °F /  -10.7 °C 1019.5 in /  34520.3 hPa WNW 12.9 mph /  20.8 km/h 43.4 mph /  69.8 km/h 90 % 0.0 in /  0 mm 97 W/m2
14:20 14.4 °F /  -9.8 °C 12.8 °F /  -10.7 °C 1019.5 in /  34520.3 hPa NW 20.9 mph /  33.6 km/h 38.6 mph /  62.1 km/h 90 % 0.0 in /  0 mm 97 W/m2
14:25 14.4 °F /  -9.8 °C 12.8 °F /  -10.7 °C 1019.2 in /  34510.1 hPa NW 25.7 mph /  41.4 km/h 38.6 mph /  62.1 km/h 90 % 0.0 in /  0 mm 114 W/m2
14:30 14.4 °F /  -9.8 °C 12.8 °F /  -10.7 °C 1019.5 in /  34520.3 hPa WNW 11.3 mph /  18.2 km/h 43.4 mph /  69.8 km/h 90 % 0.0 in /  0 mm 90 W/m2
14:35 14.4 °F /  -9.8 °C 12.8 °F /  -10.7 °C 1019.2 in /  34510.1 hPa West 19.3 mph /  31.1 km/h 43.4 mph /  69.8 km/h 90 % 0.0 in /  0 mm 83 W/m2
14:40 14.3 °F /  -9.8 °C 12.7 °F /  -10.7 °C 1019.2 in /  34510.1 hPa NW 11.3 mph /  18.2 km/h 40.2 mph /  64.7 km/h 90 % 0.0 in /  0 mm 74 W/m2
14:45 14.3 °F /  -9.8 °C 12.7 °F /  -10.7 °C 1019.2 in /  34510.1 hPa WNW 17.7 mph /  28.5 km/h 40.2 mph /  64.7 km/h 90 % 0.0 in /  0 mm 88 W/m2
14:50 14.4 °F /  -9.8 °C 12.8 °F /  -10.7 °C 1019.2 in /  34510.1 hPa NNW 14.5 mph /  23.3 km/h 40.2 mph /  64.7 km/h 90 % 0.0 in /  0 mm 118 W/m2
14:55 14.4 °F /  -9.8 °C 12.8 °F /  -10.7 °C 1019.2 in /  34510.1 hPa West 14.5 mph /  23.3 km/h 32.2 mph /  51.8 km/h 90 % 0.0 in /  0 mm 72 W/m2
15:00 14.3 °F /  -9.8 °C 12.7 °F /  -10.7 °C 1019.2 in /  34510.1 hPa NW 12.9 mph /  20.8 km/h 40.2 mph /  64.7 km/h 90 % 0.0 in /  0 mm 81 W/m2
15:05 14.3 °F /  -9.8 °C 12.7 °F /  -10.7 °C 1019.2 in /  34510.1 hPa WNW 17.7 mph /  28.5 km/h 40.2 mph /  64.7 km/h 90 % 0.0 in /  0 mm 58 W/m2
15:10 14.3 °F /  -9.8 °C 12.7 °F /  -10.7 °C 1019.2 in /  34510.1 hPa WNW 20.9 mph /  33.6 km/h 37.0 mph /  59.5 km/h 90 % 0.0 in /  0 mm 60 W/m2
15:15 14.3 °F /  -9.8 °C 12.7 °F /  -10.7 °C 1018.8 in /  34496.6 hPa WNW 20.9 mph /  33.6 km/h 38.6 mph /  62.1 km/h 90 % 0.0 in /  0 mm 83 W/m2
15:20 14.3 °F /  -9.8 °C 12.7 °F /  -10.7 °C 1019.2 in /  34510.1 hPa NW 11.3 mph /  18.2 km/h 38.6 mph /  62.1 km/h 90 % 0.0 in /  0 mm 116 W/m2
15:25 14.4 °F /  -9.8 °C 12.8 °F /  -10.7 °C 1018.8 in /  34496.6 hPa WSW 12.9 mph /  20.8 km/h 33.8 mph /  54.4 km/h 90 % 0.0 in /  0 mm 139 W/m2
15:30 14.5 °F /  -9.7 °C 12.9 °F /  -10.6 °C 1018.8 in /  34496.6 hPa SW 6.4 mph /  10.3 km/h 33.8 mph /  54.4 km/h 90 % 0.0 in /  0 mm 142 W/m2
15:35 14.5 °F /  -9.7 °C 12.9 °F /  -10.6 °C 1018.8 in /  34496.6 hPa West 16.1 mph /  25.9 km/h 33.8 mph /  54.4 km/h 90 % 0.0 in /  0 mm 77 W/m2
15:40 14.4 °F /  -9.8 °C 12.8 °F /  -10.7 °C 1018.8 in /  34496.6 hPa NNW 9.7 mph /  15.6 km/h 38.6 mph /  62.1 km/h 90 % 0.0 in /  0 mm 53 W/m2
15:45 14.3 °F /  -9.8 °C 12.7 °F /  -10.7 °C 1019.2 in /  34510.1 hPa NW 17.7 mph /  28.5 km/h 38.6 mph /  62.1 km/h 90 % 0.0 in /  0 mm 33 W/m2
15:50 14.2 °F /  -9.9 °C 12.5 °F /  -10.8 °C 1018.8 in /  34496.6 hPa WNW 9.7 mph /  15.6 km/h 33.8 mph /  54.4 km/h 90 % 0.0 in /  0 mm 30 W/m2
15:55 14.1 °F /  -9.9 °C 12.5 °F /  -10.8 °C 1018.8 in /  34496.6 hPa WNW 16.1 mph /  25.9 km/h 33.8 mph /  54.4 km/h 90 % 0.0 in /  0 mm 28 W/m2
16:00 14.1 °F /  -9.9 °C 12.6 °F /  -10.8 °C 1018.8 in /  34496.6 hPa NW 17.7 mph /  28.5 km/h 37.0 mph /  59.5 km/h 91 % 0.0 in /  0 mm 46 W/m2
16:05 14.1 °F /  -9.9 °C 12.4 °F /  -10.9 °C 1018.8 in /  34496.6 hPa WNW 32.2 mph /  51.8 km/h 41.8 mph /  67.3 km/h 90 % 0.0 in /  0 mm 46 W/m2
16:10 14.1 °F /  -9.9 °C 12.4 °F /  -10.9 °C 1018.8 in /  34496.6 hPa West 20.9 mph /  33.6 km/h 43.4 mph /  69.8 km/h 90 % 0.0 in /  0 mm 54 W/m2
16:15 14.1 °F /  -9.9 °C 12.5 °F /  -10.8 °C 1018.8 in /  34496.6 hPa WNW 9.7 mph /  15.6 km/h 43.4 mph /  69.8 km/h 90 % 0.0 in /  0 mm 46 W/m2
16:20 14.1 °F /  -9.9 °C 12.5 °F /  -10.8 °C 1018.8 in /  34496.6 hPa WNW 12.9 mph /  20.8 km/h 35.4 mph /  57 km/h 90 % 0.0 in /  0 mm 35 W/m2
16:25 14.0 °F /  -10 °C 12.4 °F /  -10.9 °C 1018.8 in /  34496.6 hPa WNW 25.7 mph /  41.4 km/h 35.4 mph /  57 km/h 90 % 0.0 in /  0 mm 35 W/m2
16:30 13.9 °F /  -10.1 °C 12.3 °F /  -10.9 °C 1018.8 in /  34496.6 hPa WNW 14.5 mph /  23.3 km/h 29.0 mph /  46.7 km/h 90 % 0.0 in /  0 mm 39 W/m2
16:35 13.8 °F /  -10.1 °C 12.4 °F /  -10.9 °C 1018.8 in /  34496.6 hPa NNW 20.9 mph /  33.6 km/h 32.2 mph /  51.8 km/h 91 % 0.0 in /  0 mm 23 W/m2
16:40 13.8 °F /  -10.1 °C 12.3 °F /  -10.9 °C 1019.2 in /  34510.1 hPa NW 27.4 mph /  44.1 km/h 33.8 mph /  54.4 km/h 91 % 0.0 in /  0 mm 26 W/m2
16:45 13.8 °F /  -10.1 °C 12.3 °F /  -10.9 °C 1018.8 in /  34496.6 hPa West 16.1 mph /  25.9 km/h 37.0 mph /  59.5 km/h 91 % 0.0 in /  0 mm 25 W/m2
16:50 13.8 °F /  -10.1 °C 12.3 °F /  -10.9 °C 1018.8 in /  34496.6 hPa WNW 14.5 mph /  23.3 km/h 37.0 mph /  59.5 km/h 91 % 0.0 in /  0 mm 25 W/m2
17:00 13.8 °F /  -10.1 °C 12.3 °F /  -10.9 °C 1018.8 in /  34496.6 hPa NW 11.3 mph /  18.2 km/h 38.6 mph /  62.1 km/h 91 % 0.0 in /  0 mm 14 W/m2
17:05 13.8 °F /  -10.1 °C 12.3 °F /  -10.9 °C 1019.2 in /  34510.1 hPa WNW 8.0 mph /  12.9 km/h 38.6 mph /  62.1 km/h 91 % 0.0 in /  0 mm 11 W/m2
17:10 13.8 °F /  -10.1 °C 12.3 °F /  -10.9 °C 1018.8 in /  34496.6 hPa NNW 12.9 mph /  20.8 km/h 29.0 mph /  46.7 km/h 91 % 0.0 in /  0 mm 7 W/m2
17:15 13.8 °F /  -10.1 °C 12.3 °F /  -10.9 °C 1019.2 in /  34510.1 hPa WNW 16.1 mph /  25.9 km/h 24.1 mph /  38.8 km/h 91 % 0.0 in /  0 mm 9 W/m2
17:20 13.7 °F /  -10.2 °C 12.2 °F /  -11 °C 1019.2 in /  34510.1 hPa NW 17.7 mph /  28.5 km/h 27.4 mph /  44.1 km/h 91 % 0.0 in /  0 mm 7 W/m2
17:25 13.6 °F /  -10.2 °C 12.2 °F /  -11 °C 1019.2 in /  34510.1 hPa WNW 22.5 mph /  36.2 km/h 30.6 mph /  49.2 km/h 91 % 0.0 in /  0 mm 5 W/m2
17:30 13.6 °F /  -10.2 °C 12.0 °F /  -11.1 °C 1019.2 in /  34510.1 hPa WNW 9.7 mph /  15.6 km/h 32.2 mph /  51.8 km/h 90 % 0.0 in /  0 mm 5 W/m2
17:35 13.6 °F /  -10.2 °C 12.0 °F /  -11.1 °C 1019.2 in /  34510.1 hPa NNW 16.1 mph /  25.9 km/h 33.8 mph /  54.4 km/h 90 % 0.0 in /  0 mm 0 W/m2
17:40 13.7 °F /  -10.2 °C 11.9 °F /  -11.2 °C 1019.2 in /  34510.1 hPa WNW 12.9 mph /  20.8 km/h 33.8 mph /  54.4 km/h 89 % 0.0 in /  0 mm 0 W/m2
17:50 13.6 °F /  -10.2 °C 11.8 °F /  -11.2 °C 1019.2 in /  34510.1 hPa WNW 14.5 mph /  23.3 km/h 32.2 mph /  51.8 km/h 89 % 0.0 in /  0 mm 0 W/m2
17:55 13.7 °F /  -10.2 °C 11.9 °F /  -11.2 °C 1019.2 in /  34510.1 hPa WNW 20.9 mph /  33.6 km/h 32.2 mph /  51.8 km/h 89 % 0.0 in /  0 mm 0 W/m2
18:00 13.7 °F /  -10.2 °C 11.9 °F /  -11.2 °C 1019.2 in /  34510.1 hPa WNW 17.7 mph /  28.5 km/h 32.2 mph /  51.8 km/h 89 % 0.0 in /  0 mm 0 W/m2
18:05 13.6 °F /  -10.2 °C 11.8 °F /  -11.2 °C 1019.2 in /  34510.1 hPa WNW 8.0 mph /  12.9 km/h 38.6 mph /  62.1 km/h 89 % 0.0 in /  0 mm 0 W/m2
18:10 13.6 °F /  -10.2 °C 11.8 °F /  -11.2 °C 1019.2 in /  34510.1 hPa West 22.5 mph /  36.2 km/h 38.6 mph /  62.1 km/h 89 % 0.0 in /  0 mm 0 W/m2
18:15 13.7 °F /  -10.2 °C 11.9 °F /  -11.2 °C 1019.2 in /  34510.1 hPa WNW 14.5 mph /  23.3 km/h 37.0 mph /  59.5 km/h 89 % 0.0 in /  0 mm 0 W/m2
18:20 13.6 °F /  -10.2 °C 11.8 °F /  -11.2 °C 1019.2 in /  34510.1 hPa WNW 40.2 mph /  64.7 km/h 43.4 mph /  69.8 km/h 89 % 0.0 in /  0 mm 0 W/m2
18:25 13.5 °F /  -10.3 °C 11.7 °F /  -11.3 °C 1019.2 in /  34510.1 hPa WNW 14.5 mph /  23.3 km/h 43.4 mph /  69.8 km/h 89 % 0.0 in /  0 mm 0 W/m2
18:30 13.5 °F /  -10.3 °C 11.7 °F /  -11.3 °C 1019.2 in /  34510.1 hPa WNW 12.9 mph /  20.8 km/h 41.8 mph /  67.3 km/h 89 % 0.0 in /  0 mm 0 W/m2
18:35 13.6 °F /  -10.2 °C 11.8 °F /  -11.2 °C 1019.2 in /  34510.1 hPa NW 14.5 mph /  23.3 km/h 35.4 mph /  57 km/h 89 % 0.0 in /  0 mm 0 W/m2
18:40 13.6 °F /  -10.2 °C 11.9 °F /  -11.2 °C 1019.2 in /  34510.1 hPa NW 14.5 mph /  23.3 km/h 32.2 mph /  51.8 km/h 90 % 0.0 in /  0 mm 0 W/m2
18:45 13.6 °F /  -10.2 °C 11.9 °F /  -11.2 °C 1019.2 in /  34510.1 hPa WNW 16.1 mph /  25.9 km/h 38.6 mph /  62.1 km/h 90 % 0.0 in /  0 mm 0 W/m2
18:50 13.6 °F /  -10.2 °C 11.9 °F /  -11.2 °C 1019.5 in /  34520.3 hPa WNW 30.6 mph /  49.2 km/h 38.6 mph /  62.1 km/h 90 % 0.0 in /  0 mm 0 W/m2
18:55 13.6 °F /  -10.2 °C 11.8 °F /  -11.2 °C 1019.2 in /  34510.1 hPa WNW 11.3 mph /  18.2 km/h 38.6 mph /  62.1 km/h 89 % 0.0 in /  0 mm 0 W/m2
19:00 13.6 °F /  -10.2 °C 11.8 °F /  -11.2 °C 1019.5 in /  34520.3 hPa NW 16.1 mph /  25.9 km/h 37.0 mph /  59.5 km/h 89 % 0.0 in /  0 mm 0 W/m2
19:05 13.7 °F /  -10.2 °C 11.9 °F /  -11.2 °C 1019.5 in /  34520.3 hPa WNW 19.3 mph /  31.1 km/h 30.6 mph /  49.2 km/h 89 % 0.0 in /  0 mm 0 W/m2
19:10 13.6 °F /  -10.2 °C 11.8 °F /  -11.2 °C 1019.5 in /  34520.3 hPa WNW 11.3 mph /  18.2 km/h 30.6 mph /  49.2 km/h 89 % 0.0 in /  0 mm 0 W/m2
19:15 13.6 °F /  -10.2 °C 11.8 °F /  -11.2 °C 1019.5 in /  34520.3 hPa NW 14.5 mph /  23.3 km/h 27.4 mph /  44.1 km/h 89 % 0.0 in /  0 mm 0 W/m2
19:20 13.6 °F /  -10.2 °C 11.8 °F /  -11.2 °C 1019.5 in /  34520.3 hPa WNW 12.9 mph /  20.8 km/h 33.8 mph /  54.4 km/h 89 % 0.0 in /  0 mm 0 W/m2
19:25 13.6 °F /  -10.2 °C 11.8 °F /  -11.2 °C 1019.5 in /  34520.3 hPa WNW 9.7 mph /  15.6 km/h 33.8 mph /  54.4 km/h 89 % 0.0 in /  0 mm 0 W/m2
19:35 13.4 °F /  -10.3 °C 11.8 °F /  -11.2 °C 1019.5 in /  34520.3 hPa West 11.3 mph /  18.2 km/h 35.4 mph /  57 km/h 90 % 0.0 in /  0 mm 0 W/m2
19:40 13.3 °F /  -10.4 °C 11.7 °F /  -11.3 °C 1019.5 in /  34520.3 hPa WNW 17.7 mph /  28.5 km/h 35.4 mph /  57 km/h 90 % 0.0 in /  0 mm 0 W/m2
19:45 13.3 °F /  -10.4 °C 11.8 °F /  -11.2 °C 1019.5 in /  34520.3 hPa NW 6.4 mph /  10.3 km/h 27.4 mph /  44.1 km/h 91 % 0.0 in /  0 mm 0 W/m2
19:50 13.3 °F /  -10.4 °C 11.8 °F /  -11.2 °C 1019.5 in /  34520.3 hPa NNW 9.7 mph /  15.6 km/h 24.1 mph /  38.8 km/h 91 % 0.0 in /  0 mm 0 W/m2
19:55 13.3 °F /  -10.4 °C 11.8 °F /  -11.2 °C 1019.5 in /  34520.3 hPa WNW 14.5 mph /  23.3 km/h 24.1 mph /  38.8 km/h 91 % 0.0 in /  0 mm 0 W/m2
20:00 13.3 °F /  -10.4 °C 11.8 °F /  -11.2 °C 1019.5 in /  34520.3 hPa NW 14.5 mph /  23.3 km/h 24.1 mph /  38.8 km/h 91 % 0.0 in /  0 mm 0 W/m2
20:10 13.3 °F /  -10.4 °C 11.8 °F /  -11.2 °C 1019.2 in /  34510.1 hPa WNW 4.8 mph /  7.7 km/h 29.0 mph /  46.7 km/h 91 % 0.0 in /  0 mm 0 W/m2
20:15 13.3 °F /  -10.4 °C 11.7 °F /  -11.3 °C 1019.2 in /  34510.1 hPa West 9.7 mph /  15.6 km/h 29.0 mph /  46.7 km/h 90 % 0.0 in /  0 mm 0 W/m2
20:20 13.4 °F /  -10.3 °C 11.8 °F /  -11.2 °C 1019.2 in /  34510.1 hPa WNW 25.7 mph /  41.4 km/h 32.2 mph /  51.8 km/h 90 % 0.0 in /  0 mm 0 W/m2
20:25 13.4 °F /  -10.3 °C 11.7 °F /  -11.3 °C 1019.2 in /  34510.1 hPa West 11.3 mph /  18.2 km/h 32.2 mph /  51.8 km/h 89 % 0.0 in /  0 mm 0 W/m2
20:30 13.4 °F /  -10.3 °C 11.7 °F /  -11.3 °C 1019.2 in /  34510.1 hPa WNW 8.0 mph /  12.9 km/h 33.8 mph /  54.4 km/h 89 % 0.0 in /  0 mm 0 W/m2
20:35 13.5 °F /  -10.3 °C 11.7 °F /  -11.3 °C 1019.5 in /  34520.3 hPa WNW 12.9 mph /  20.8 km/h 33.8 mph /  54.4 km/h 89 % 0.0 in /  0 mm 0 W/m2
20:40 13.4 °F /  -10.3 °C 11.8 °F /  -11.2 °C 1019.5 in /  34520.3 hPa West 17.7 mph /  28.5 km/h 25.7 mph /  41.4 km/h 90 % 0.0 in /  0 mm 0 W/m2
20:45 13.3 °F /  -10.4 °C 11.9 °F /  -11.2 °C 1019.5 in /  34520.3 hPa NW 8.0 mph /  12.9 km/h 24.1 mph /  38.8 km/h 91 % 0.0 in /  0 mm 0 W/m2
20:50 13.2 °F /  -10.4 °C 11.8 °F /  -11.2 °C 1019.5 in /  34520.3 hPa NW 8.0 mph /  12.9 km/h 29.0 mph /  46.7 km/h 91 % 0.0 in /  0 mm 0 W/m2
20:55 13.2 °F /  -10.4 °C 11.7 °F /  -11.3 °C 1019.5 in /  34520.3 hPa NW 12.9 mph /  20.8 km/h 29.0 mph /  46.7 km/h 91 % 0.0 in /  0 mm 0 W/m2
21:00 13.2 °F /  -10.4 °C 11.8 °F /  -11.2 °C 1019.5 in /  34520.3 hPa NNW 11.3 mph /  18.2 km/h 29.0 mph /  46.7 km/h 91 % 0.0 in /  0 mm 0 W/m2
21:05 13.2 °F /  -10.4 °C 11.8 °F /  -11.2 °C 1019.5 in /  34520.3 hPa NW 12.9 mph /  20.8 km/h 22.5 mph /  36.2 km/h 91 % 0.0 in /  0 mm 0 W/m2
21:10 13.2 °F /  -10.4 °C 11.9 °F /  -11.2 °C 1019.5 in /  34520.3 hPa NW 11.3 mph /  18.2 km/h 27.4 mph /  44.1 km/h 92 % 0.0 in /  0 mm 0 W/m2
21:15 13.2 °F /  -10.4 °C 11.8 °F /  -11.2 °C 1019.5 in /  34520.3 hPa West 11.3 mph /  18.2 km/h 27.4 mph /  44.1 km/h 91 % 0.0 in /  0 mm 0 W/m2
21:20 13.3 °F /  -10.4 °C 11.8 °F /  -11.2 °C 1019.2 in /  34510.1 hPa NNW 4.8 mph /  7.7 km/h 20.9 mph /  33.6 km/h 91 % 0.0 in /  0 mm 0 W/m2
21:25 13.3 °F /  -10.4 °C 11.9 °F /  -11.2 °C 1019.2 in /  34510.1 hPa WNW 4.8 mph /  7.7 km/h 19.3 mph /  31.1 km/h 91 % 0.0 in /  0 mm 0 W/m2
21:30 13.4 °F /  -10.3 °C 11.9 °F /  -11.2 °C 1019.5 in /  34520.3 hPa West 12.9 mph /  20.8 km/h 17.7 mph /  28.5 km/h 91 % 0.0 in /  0 mm 0 W/m2
21:35 13.4 °F /  -10.3 °C 11.9 °F /  -11.2 °C 1019.2 in /  34510.1 hPa NW 9.7 mph /  15.6 km/h 20.9 mph /  33.6 km/h 91 % 0.0 in /  0 mm 0 W/m2
21:40 13.3 °F /  -10.4 °C 11.9 °F /  -11.2 °C 1019.2 in /  34510.1 hPa WNW 3.2 mph /  5.1 km/h 20.9 mph /  33.6 km/h 91 % 0.0 in /  0 mm 0 W/m2
21:45 13.3 °F /  -10.4 °C 11.8 °F /  -11.2 °C 1019.2 in /  34510.1 hPa West 8.0 mph /  12.9 km/h 17.7 mph /  28.5 km/h 91 % 0.0 in /  0 mm 0 W/m2
21:50 13.3 °F /  -10.4 °C 12.0 °F /  -11.1 °C 1019.2 in /  34510.1 hPa WNW 6.4 mph /  10.3 km/h 16.1 mph /  25.9 km/h 92 % 0.0 in /  0 mm 0 W/m2
21:55 13.3 °F /  -10.4 °C 12.1 °F /  -11.1 °C 1019.2 in /  34510.1 hPa NW 8.0 mph /  12.9 km/h 17.7 mph /  28.5 km/h 92 % 0.0 in /  0 mm 0 W/m2
22:00 13.4 °F /  -10.3 °C 12.1 °F /  -11.1 °C 1019.2 in /  34510.1 hPa WNW 8.0 mph /  12.9 km/h 19.3 mph /  31.1 km/h 92 % 0.0 in /  0 mm 0 W/m2
22:05 13.4 °F /  -10.3 °C 12.2 °F /  -11 °C 1019.2 in /  34510.1 hPa WNW 3.2 mph /  5.1 km/h 19.3 mph /  31.1 km/h 92 % 0.0 in /  0 mm 0 W/m2
22:10 13.4 °F /  -10.3 °C 12.2 °F /  -11 °C 1019.2 in /  34510.1 hPa West 6.4 mph /  10.3 km/h 19.3 mph /  31.1 km/h 92 % 0.0 in /  0 mm 0 W/m2
22:20 13.4 °F /  -10.3 °C 12.2 °F /  -11 °C 1019.2 in /  34510.1 hPa WNW 6.4 mph /  10.3 km/h 19.3 mph /  31.1 km/h 92 % 0.0 in /  0 mm 0 W/m2
22:25 13.5 °F /  -10.3 °C 12.2 °F /  -11 °C 1018.8 in /  34496.6 hPa West 11.3 mph /  18.2 km/h 17.7 mph /  28.5 km/h 92 % 0.0 in /  0 mm 0 W/m2
22:30 13.4 °F /  -10.3 °C 12.2 °F /  -11 °C 1018.8 in /  34496.6 hPa WNW 6.4 mph /  10.3 km/h 20.9 mph /  33.6 km/h 92 % 0.0 in /  0 mm 0 W/m2
22:35 13.4 °F /  -10.3 °C 12.2 °F /  -11 °C 1018.8 in /  34496.6 hPa WSW 11.3 mph /  18.2 km/h 20.9 mph /  33.6 km/h 92 % 0.0 in /  0 mm 0 W/m2
22:40 13.5 °F /  -10.3 °C 12.2 °F /  -11 °C 1018.8 in /  34496.6 hPa WNW 14.5 mph /  23.3 km/h 25.7 mph /  41.4 km/h 92 % 0.0 in /  0 mm 0 W/m2
22:45 13.5 °F /  -10.3 °C 12.2 °F /  -11 °C 1018.8 in /  34496.6 hPa WNW 4.8 mph /  7.7 km/h 25.7 mph /  41.4 km/h 92 % 0.0 in /  0 mm 0 W/m2
22:50 13.5 °F /  -10.3 °C 12.2 °F /  -11 °C 1019.2 in /  34510.1 hPa West 8.0 mph /  12.9 km/h 25.7 mph /  41.4 km/h 92 % 0.0 in /  0 mm 0 W/m2
22:55 13.6 °F /  -10.2 °C 12.3 °F /  -10.9 °C 1018.8 in /  34496.6 hPa NW 9.7 mph /  15.6 km/h 25.7 mph /  41.4 km/h 92 % 0.0 in /  0 mm 0 W/m2
23:00 13.6 °F /  -10.2 °C 12.3 °F /  -10.9 °C 1018.8 in /  34496.6 hPa WNW 16.1 mph /  25.9 km/h 20.9 mph /  33.6 km/h 92 % 0.0 in /  0 mm 0 W/m2
23:05 13.6 °F /  -10.2 °C 12.3 °F /  -10.9 °C 1018.8 in /  34496.6 hPa WNW 9.7 mph /  15.6 km/h 20.9 mph /  33.6 km/h 92 % 0.0 in /  0 mm 0 W/m2
23:10 13.6 °F /  -10.2 °C 12.3 °F /  -10.9 °C 1018.8 in /  34496.6 hPa WNW 12.9 mph /  20.8 km/h 22.5 mph /  36.2 km/h 92 % 0.0 in /  0 mm 0 W/m2
23:15 13.6 °F /  -10.2 °C 12.3 °F /  -10.9 °C 1018.8 in /  34496.6 hPa WNW 8.0 mph /  12.9 km/h 24.1 mph /  38.8 km/h 92 % 0.0 in /  0 mm 0 W/m2
23:20 13.6 °F /  -10.2 °C 12.3 °F /  -10.9 °C 1018.8 in /  34496.6 hPa West 11.3 mph /  18.2 km/h 24.1 mph /  38.8 km/h 92 % 0.0 in /  0 mm 0 W/m2
23:25 13.6 °F /  -10.2 °C 12.3 °F /  -10.9 °C 1018.8 in /  34496.6 hPa NW 14.5 mph /  23.3 km/h 20.9 mph /  33.6 km/h 92 % 0.0 in /  0 mm 0 W/m2
23:30 13.6 °F /  -10.2 °C 12.3 °F /  -10.9 °C 1018.8 in /  34496.6 hPa NW 14.5 mph /  23.3 km/h 30.6 mph /  49.2 km/h 92 % 0.0 in /  0 mm 0 W/m2
23:35 13.6 °F /  -10.2 °C 12.3 °F /  -10.9 °C 1018.8 in /  34496.6 hPa West 9.7 mph /  15.6 km/h 30.6 mph /  49.2 km/h 92 % 0.0 in /  0 mm 0 W/m2
23:40 13.5 °F /  -10.3 °C 12.2 °F /  -11 °C 1018.8 in /  34496.6 hPa NNW 25.7 mph /  41.4 km/h 25.7 mph /  41.4 km/h 92 % 0.0 in /  0 mm 0 W/m2
23:45 13.4 °F /  -10.3 °C 12.2 °F /  -11 °C 1018.8 in /  34496.6 hPa NW 14.5 mph /  23.3 km/h 25.7 mph /  41.4 km/h 92 % 0.0 in /  0 mm 0 W/m2
23:50 13.4 °F /  -10.3 °C 12.2 °F /  -11 °C 1018.8 in /  34496.6 hPa NW 8.0 mph /  12.9 km/h 25.7 mph /  41.4 km/h 92 % 0.0 in /  0 mm 0 W/m2
23:55 13.4 °F /  -10.3 °C 12.2 °F /  -11 °C 1018.8 in /  34496.6 hPa NW 11.3 mph /  18.2 km/h 22.5 mph /  36.2 km/h 92 % 0.0 in /  0 mm 0 W/m2
Avec l'autorisation de Weather Underground - 1.75 mb